createdAt,value
2022-09-01T00:00:13.566Z,7.30
2022-09-01T00:03:01.402Z,6.30
2022-09-01T00:05:32.164Z,4.60
2022-09-01T00:08:00.899Z,6.30
2022-09-01T00:10:29.226Z,5.60
2022-09-01T00:12:57.911Z,5.30
2022-09-01T00:15:27.256Z,7.80
2022-09-01T00:17:55.699Z,4.50
2022-09-01T00:20:23.969Z,4.40
2022-09-01T00:22:52.143Z,4.00
2022-09-01T00:25:21.445Z,4.30
2022-09-01T00:27:50.155Z,5.80
2022-09-01T00:30:19.396Z,8.50
2022-09-01T00:32:48.221Z,3.60
2022-09-01T00:35:19.055Z,4.30
2022-09-01T00:37:47.837Z,5.90
2022-09-01T00:40:17.728Z,3.80
2022-09-01T00:42:49.211Z,6.00
2022-09-01T00:45:23.148Z,4.40
2022-09-01T00:47:51.670Z,9.50
2022-09-01T00:50:20.082Z,5.30
2022-09-01T00:52:55.058Z,4.50
2022-09-01T00:55:32.741Z,5.80
2022-09-01T00:58:03.735Z,6.10
2022-09-01T01:00:41.878Z,5.00
2022-09-01T01:03:14.849Z,6.90
2022-09-01T01:05:54.500Z,3.80
2022-09-01T01:08:34.309Z,3.60
2022-09-01T01:11:06.603Z,4.70
2022-09-01T01:14:10.823Z,3.80
2022-09-01T01:16:45.369Z,5.60
2022-09-01T01:19:53.973Z,4.50
2022-09-01T01:23:02.801Z,4.20
2022-09-01T01:25:32.812Z,7.20
2022-09-01T01:28:09.896Z,4.00
2022-09-01T01:30:42.103Z,5.00
2022-09-01T01:33:11.583Z,6.00
2022-09-01T01:35:42.302Z,5.20
2022-09-01T01:38:11.596Z,5.20
2022-09-01T01:40:41.717Z,4.10
2022-09-01T01:43:11.840Z,5.50
2022-09-01T01:45:40.039Z,6.60
2022-09-01T01:48:09.827Z,5.30
2022-09-01T01:50:38.237Z,3.80
2022-09-01T01:53:10.920Z,9.20
2022-09-01T01:55:42.130Z,6.40
2022-09-01T01:58:15.329Z,12.50
2022-09-01T02:00:44.932Z,7.10
2022-09-01T02:03:20.169Z,5.10
2022-09-01T02:05:50.643Z,11.30
2022-09-01T02:08:26.377Z,4.40
2022-09-01T02:10:58.970Z,7.70
2022-09-01T02:13:31.405Z,7.70
2022-09-01T02:16:07.921Z,7.50
2022-09-01T02:18:38.499Z,7.70
2022-09-01T02:21:16.419Z,6.60
2022-09-01T02:24:00.652Z,8.60
2022-09-01T02:26:39.782Z,7.00
2022-09-01T02:29:24.238Z,8.50
2022-09-01T02:31:54.767Z,6.30
2022-09-01T02:34:26.031Z,6.80
2022-09-01T02:39:29.857Z,6.90
2022-09-01T02:41:58.829Z,6.70
2022-09-01T02:44:31.331Z,8.60
2022-09-01T02:47:02.081Z,11.30
2022-09-01T02:49:31.748Z,7.90
2022-09-01T02:52:02.119Z,9.30
2022-09-01T02:57:01.927Z,9.70
2022-09-01T02:59:30.753Z,10.50
2022-09-01T03:02:01.424Z,7.50
2022-09-01T03:04:34.143Z,8.80
2022-09-01T03:07:04.634Z,7.00
2022-09-01T03:09:33.216Z,8.20
2022-09-01T03:12:01.390Z,9.40
2022-09-01T03:14:30.280Z,9.40
2022-09-01T03:17:00.874Z,7.70
2022-09-01T03:19:32.568Z,8.00
2022-09-01T03:22:00.742Z,7.70
2022-09-01T03:24:32.438Z,10.40
2022-09-01T03:27:01.390Z,6.00
2022-09-01T03:29:29.768Z,7.50
2022-09-01T03:31:58.013Z,6.80
2022-09-01T03:34:27.243Z,7.10
2022-09-01T03:36:56.645Z,6.10
2022-09-01T03:39:28.608Z,8.10
2022-09-01T03:41:59.190Z,6.70
2022-09-01T03:44:27.930Z,9.90
2022-09-01T03:46:58.762Z,7.50
2022-09-01T03:49:29.043Z,7.70
2022-09-01T03:51:59.061Z,7.50
2022-09-01T03:54:30.781Z,9.00
2022-09-01T03:57:00.243Z,7.30
2022-09-01T03:59:30.351Z,6.50
2022-09-01T04:02:00.391Z,8.60
2022-09-01T04:04:33.209Z,7.00
2022-09-01T04:07:01.971Z,9.70
2022-09-01T04:09:35.470Z,8.00
2022-09-01T04:12:09.276Z,6.50
2022-09-01T04:14:39.293Z,5.60
2022-09-01T04:17:30.360Z,4.50
2022-09-01T04:19:59.034Z,6.20
2022-09-01T04:22:30.442Z,7.10
2022-09-01T04:24:59.534Z,3.80
2022-09-01T04:27:29.243Z,5.60
2022-09-01T04:29:57.988Z,9.80
2022-09-01T04:32:29.282Z,5.20
2022-09-01T04:35:00.524Z,5.80
2022-09-01T04:37:29.210Z,7.90
2022-09-01T04:40:00.661Z,7.40
2022-09-01T04:42:32.818Z,5.90
2022-09-01T04:45:10.494Z,7.80
2022-09-01T04:47:45.765Z,6.80
2022-09-01T04:50:19.059Z,9.60
2022-09-01T04:53:20.004Z,7.40
2022-09-01T04:55:51.555Z,5.00
2022-09-01T04:58:22.330Z,5.40
2022-09-01T05:00:56.283Z,5.50
2022-09-01T05:03:25.239Z,7.60
2022-09-01T05:05:56.231Z,7.40
2022-09-01T05:08:25.173Z,11.10
2022-09-01T05:10:59.952Z,6.80
2022-09-01T05:13:48.608Z,8.80
2022-09-01T05:16:25.507Z,7.60
2022-09-01T05:18:58.268Z,8.00
2022-09-01T05:21:34.049Z,6.50
2022-09-01T05:24:04.067Z,4.60
2022-09-01T05:29:10.933Z,5.80
2022-09-01T05:31:45.511Z,6.10
2022-09-01T05:34:26.632Z,5.40
2022-09-01T05:36:59.413Z,5.10
2022-09-01T05:39:27.792Z,8.00
2022-09-01T05:41:57.501Z,7.00
2022-09-01T05:44:26.392Z,6.40
2022-09-01T05:46:59.611Z,6.60
2022-09-01T05:49:33.464Z,6.60
2022-09-01T05:52:05.250Z,10.50
2022-09-01T05:54:34.244Z,7.30
2022-09-01T05:57:23.453Z,5.60
2022-09-01T05:59:54.352Z,6.20
2022-09-01T06:02:29.046Z,4.90
2022-09-01T06:05:00.224Z,6.10
2022-09-01T06:07:34.144Z,5.60
2022-09-01T06:10:02.505Z,4.80
2022-09-01T06:12:31.089Z,3.80
2022-09-01T06:15:00.391Z,8.00
2022-09-01T06:17:30.509Z,5.10
2022-09-01T06:20:02.267Z,4.80
2022-09-01T06:22:31.674Z,5.60
2022-09-01T06:25:02.644Z,8.20
2022-09-01T06:27:38.990Z,6.20
2022-09-01T06:30:15.543Z,5.90
2022-09-01T06:32:54.265Z,5.20
2022-09-01T06:35:29.740Z,7.70
2022-09-01T06:37:59.011Z,9.30
2022-09-01T06:40:42.750Z,5.10
2022-09-01T06:43:14.176Z,6.50
2022-09-01T06:45:54.745Z,5.20
2022-09-01T06:48:26.112Z,4.50
2022-09-01T06:51:20.895Z,4.80
2022-09-01T06:53:57.014Z,3.40
2022-09-01T06:59:21.931Z,4.70
2022-09-01T07:01:53.320Z,5.00
2022-09-01T07:04:32.219Z,2.80
2022-09-01T07:10:18.605Z,2.80
2022-09-01T07:13:11.828Z,3.40
2022-09-01T07:18:34.090Z,4.20
2022-09-01T07:21:36.879Z,3.70
2022-09-01T07:24:13.661Z,3.10
2022-09-01T07:27:07.557Z,4.10
2022-09-01T07:29:36.562Z,4.00
2022-09-01T07:34:58.172Z,3.00
2022-09-01T07:39:57.253Z,3.30
2022-09-01T07:43:32.780Z,4.40
2022-09-01T07:49:29.672Z,4.60
2022-09-01T07:51:45.850Z,6.50
2022-09-01T07:54:15.200Z,3.80
2022-09-01T07:56:44.806Z,3.10
2022-09-01T07:59:15.776Z,3.30
2022-09-01T08:01:54.716Z,4.70
2022-09-01T08:04:23.667Z,3.00
2022-09-01T08:06:52.355Z,3.40
2022-09-01T08:09:37.451Z,2.20
2022-09-01T08:12:09.074Z,1.60
2022-09-01T08:17:58.369Z,2.70
2022-09-01T08:20:35.446Z,3.00
2022-09-01T08:23:38.059Z,2.00
2022-09-01T08:26:12.241Z,2.20
2022-09-01T08:28:45.867Z,4.70
2022-09-01T08:31:18.003Z,2.00
2022-09-01T08:33:48.847Z,2.00
2022-09-01T08:36:23.066Z,1.90
2022-09-01T08:38:53.735Z,3.00
2022-09-01T08:41:46.763Z,3.20
2022-09-01T08:44:18.172Z,2.90
2022-09-01T08:46:46.856Z,2.20
2022-09-01T08:49:26.236Z,1.90
2022-09-01T08:52:35.606Z,2.50
2022-09-01T08:55:26.265Z,2.70
2022-09-01T08:57:59.800Z,1.40
2022-09-01T09:00:43.708Z,1.30
2022-09-01T09:03:17.070Z,2.10
2022-09-01T09:08:54.211Z,2.50
2022-09-01T09:11:22.309Z,3.50
2022-09-01T09:14:11.653Z,2.90
2022-09-01T09:16:51.568Z,2.10
2022-09-01T09:19:22.129Z,1.60
2022-09-01T09:21:54.221Z,1.20
2022-09-01T09:24:52.870Z,1.40
2022-09-01T09:27:28.430Z,1.70
2022-09-01T09:30:04.357Z,3.90
2022-09-01T09:33:44.342Z,0.90
2022-09-01T09:35:57.872Z,1.10
2022-09-01T09:38:29.545Z,1.40
2022-09-01T09:41:17.206Z,5.20
2022-09-01T09:43:58.645Z,1.60
2022-09-01T09:46:40.410Z,2.90
2022-09-01T09:49:36.456Z,2.00
2022-09-01T09:52:09.043Z,1.00
2022-09-01T09:54:40.595Z,1.60
2022-09-01T09:57:08.678Z,1.30
2022-09-01T09:59:57.860Z,2.90
2022-09-01T10:02:39.817Z,1.40
2022-09-01T10:05:26.437Z,1.60
2022-09-01T10:07:57.240Z,0.80
2022-09-01T10:10:57.365Z,1.00
2022-09-01T10:13:31.422Z,0.90
2022-09-01T10:16:10.540Z,0.80
2022-09-01T10:18:46.424Z,1.10
2022-09-01T10:21:26.239Z,0.90
2022-09-01T10:23:55.019Z,4.40
2022-09-01T10:26:30.169Z,1.10
2022-09-01T10:29:21.685Z,1.00
2022-09-01T10:31:59.422Z,0.70
2022-09-01T10:34:42.088Z,0.80
2022-09-01T10:37:12.164Z,1.80
2022-09-01T10:40:21.495Z,0.70
2022-09-01T10:42:57.241Z,0.90
2022-09-01T10:45:35.936Z,1.20
2022-09-01T10:48:32.084Z,2.10
2022-09-01T10:51:18.268Z,1.60
2022-09-01T10:53:54.005Z,0.60
2022-09-01T10:56:44.256Z,0.60
2022-09-01T10:59:33.768Z,0.80
2022-09-01T11:05:00.345Z,0.50
2022-09-01T11:07:59.816Z,0.90
2022-09-01T11:10:39.816Z,1.60
2022-09-01T11:13:29.358Z,1.90
2022-09-01T11:16:53.205Z,0.80
2022-09-01T11:19:27.576Z,3.30
2022-09-01T11:22:30.650Z,0.80
2022-09-01T11:25:39.777Z,3.00
2022-09-01T11:28:23.522Z,1.70
2022-09-01T11:31:02.150Z,1.50
2022-09-01T11:34:01.548Z,2.30
2022-09-01T11:36:31.976Z,2.10
2022-09-01T11:39:08.954Z,1.00
2022-09-01T11:41:55.871Z,1.50
2022-09-01T11:44:30.922Z,1.10
2022-09-01T11:47:04.913Z,2.30
2022-09-01T11:49:37.386Z,0.90
2022-09-01T11:52:06.912Z,0.60
2022-09-01T11:54:41.723Z,0.90
2022-09-01T11:57:35.443Z,0.90
2022-09-01T12:00:13.551Z,1.30
2022-09-01T12:02:51.984Z,0.50
2022-09-01T12:05:33.912Z,1.90
2022-09-01T12:08:15.452Z,0.90
2022-09-01T12:10:45.210Z,0.70
2022-09-01T12:13:24.852Z,0.80
2022-09-01T12:16:19.354Z,0.50
2022-09-01T12:18:51.767Z,1.80
2022-09-01T12:21:30.745Z,1.40
2022-09-01T12:24:24.109Z,1.30
2022-09-01T12:26:56.173Z,2.00
2022-09-01T12:29:27.752Z,1.50
2022-09-01T12:31:59.152Z,1.10
2022-09-01T12:34:59.404Z,0.60
2022-09-01T12:37:28.294Z,4.00
2022-09-01T12:39:58.822Z,0.70
2022-09-01T12:42:40.740Z,1.80
2022-09-01T12:45:11.452Z,0.70
2022-09-01T12:47:50.313Z,0.60
2022-09-01T12:50:18.655Z,0.50
2022-09-01T12:52:58.607Z,0.40
2022-09-01T12:55:50.542Z,1.40
2022-09-01T12:58:25.994Z,0.40
2022-09-01T13:00:56.332Z,3.40
2022-09-01T13:03:27.786Z,2.70
2022-09-01T13:05:59.363Z,0.60
2022-09-01T13:08:34.067Z,0.60
2022-09-01T13:11:04.158Z,2.80
2022-09-01T13:13:35.649Z,1.40
2022-09-01T13:21:35.352Z,2.20
2022-09-01T13:24:05.779Z,2.90
2022-09-01T13:26:34.260Z,0.90
2022-09-01T13:29:02.435Z,1.30
2022-09-01T13:31:32.005Z,0.60
2022-09-01T13:34:22.478Z,3.00
2022-09-01T13:36:52.888Z,1.50
2022-09-01T13:39:22.775Z,3.40
2022-09-01T13:41:51.310Z,2.50
2022-09-01T13:44:19.949Z,2.00
2022-09-01T13:50:05.395Z,2.40
2022-09-01T13:52:25.429Z,0.90
2022-09-01T13:54:53.600Z,3.00
2022-09-01T13:57:21.877Z,3.90
2022-09-01T13:59:50.052Z,1.20
2022-09-01T14:02:18.532Z,0.70
2022-09-01T14:04:47.615Z,0.80
2022-09-01T14:07:16.519Z,1.50
2022-09-01T14:09:45.599Z,0.30
2022-09-01T14:12:14.095Z,1.60
2022-09-01T14:17:31.128Z,0.90
2022-09-01T14:19:59.302Z,1.40
2022-09-01T14:22:27.885Z,2.50
2022-09-01T14:24:56.059Z,0.40
2022-09-01T14:27:24.437Z,1.40
2022-09-01T14:29:54.999Z,3.60
2022-09-01T14:32:27.273Z,0.60
2022-09-01T14:34:57.254Z,2.90
2022-09-01T14:37:27.341Z,1.30
2022-09-01T14:39:57.986Z,1.60
2022-09-01T14:42:28.956Z,0.70
2022-09-01T14:44:58.057Z,1.70
2022-09-01T14:47:26.297Z,0.40
2022-09-01T14:49:56.825Z,0.70
2022-09-01T14:52:26.042Z,0.60
2022-09-01T14:54:55.344Z,2.80
2022-09-01T14:57:36.446Z,2.10
2022-09-01T15:00:12.462Z,1.20
2022-09-01T15:02:43.518Z,1.40
2022-09-01T15:05:14.764Z,1.20
2022-09-01T15:07:43.941Z,1.30
2022-09-01T15:10:25.245Z,1.50
2022-09-01T15:15:24.971Z,2.00
2022-09-01T15:17:55.090Z,0.70
2022-09-01T15:20:43.539Z,2.70
2022-09-01T15:23:15.404Z,2.60
2022-09-01T15:25:44.375Z,0.60
2022-09-01T15:28:13.446Z,0.70
2022-09-01T15:30:44.526Z,0.60
2022-09-01T15:33:16.074Z,2.50
2022-09-01T15:35:46.820Z,1.90
2022-09-01T15:38:19.987Z,1.40
2022-09-01T15:40:56.998Z,1.20
2022-09-01T15:43:29.589Z,2.20
2022-09-01T15:45:58.997Z,3.60
2022-09-01T15:48:30.839Z,1.70
2022-09-01T15:51:38.762Z,1.30
2022-09-01T15:54:17.352Z,1.70
2022-09-01T15:56:47.339Z,0.90
2022-09-01T15:59:16.158Z,3.70
2022-09-01T16:01:46.299Z,2.10
2022-09-01T16:04:19.900Z,5.90
2022-09-01T16:06:51.132Z,2.00
2022-09-01T16:09:21.451Z,3.70
2022-09-01T16:11:50.853Z,2.90
2022-09-01T16:14:24.042Z,4.70
2022-09-01T16:17:11.824Z,6.40
2022-09-01T16:19:46.245Z,8.30
2022-09-01T16:22:20.824Z,8.20
2022-09-01T16:24:54.744Z,11.60
2022-09-01T16:27:33.268Z,8.40
2022-09-01T16:30:10.190Z,9.30
2022-09-01T16:32:43.160Z,8.40
2022-09-01T16:35:11.392Z,9.60
2022-09-01T16:38:02.601Z,10.40
2022-09-01T16:40:33.784Z,11.50
2022-09-01T16:43:04.137Z,17.00
2022-09-01T16:45:43.204Z,20.30
2022-09-01T16:48:30.319Z,31.20
2022-09-01T16:51:38.867Z,20.20
2022-09-01T16:54:32.100Z,15.30
2022-09-01T16:57:22.832Z,13.70
2022-09-01T16:59:58.964Z,10.50
2022-09-01T17:03:01.285Z,9.80
2022-09-01T17:05:41.186Z,11.20
2022-09-01T17:08:23.624Z,10.10
2022-09-01T17:11:10.848Z,11.30
2022-09-01T17:13:43.186Z,9.20
2022-09-01T17:16:21.912Z,6.40
2022-09-01T17:18:59.470Z,7.20
2022-09-01T17:21:49.181Z,8.20
2022-09-01T17:24:28.619Z,11.30
2022-09-01T17:27:08.571Z,8.60
2022-09-01T17:29:43.913Z,10.40
2022-09-01T17:32:48.285Z,8.20
2022-09-01T17:35:47.137Z,4.60
2022-09-01T17:38:30.353Z,6.90
2022-09-01T17:41:07.784Z,12.50
2022-09-01T17:43:46.567Z,3.60
2022-09-01T17:46:50.446Z,5.70
2022-09-01T17:49:56.028Z,6.20
2022-09-01T17:52:52.780Z,4.40
2022-09-01T17:55:36.306Z,4.50
2022-09-01T17:58:33.767Z,7.70
2022-09-01T18:01:16.331Z,14.00
2022-09-01T18:03:54.180Z,15.50
2022-09-01T18:06:36.587Z,10.80
2022-09-01T18:09:06.705Z,12.80
2022-09-01T18:12:00.122Z,13.80
2022-09-01T18:14:37.460Z,7.10
2022-09-01T18:17:20.020Z,5.20
2022-09-01T18:19:59.716Z,6.40
2022-09-01T18:22:35.674Z,7.50
2022-09-01T18:25:07.888Z,7.80
2022-09-01T18:27:37.139Z,5.80
2022-09-01T18:30:06.217Z,3.00
2022-09-01T18:32:42.930Z,3.40
2022-09-01T18:35:22.859Z,3.10
2022-09-01T18:38:15.762Z,3.00
2022-09-01T18:41:21.850Z,3.60
2022-09-01T18:44:26.690Z,3.70
2022-09-01T18:47:01.694Z,7.50
2022-09-01T18:49:55.620Z,7.20
2022-09-01T18:52:24.495Z,6.60
2022-09-01T18:55:28.942Z,7.50
2022-09-01T18:58:08.988Z,7.50
2022-09-01T19:00:52.084Z,7.80
2022-09-01T19:03:27.805Z,10.50
2022-09-01T19:06:11.192Z,9.40
2022-09-01T19:08:44.281Z,10.00
2022-09-01T19:11:25.212Z,8.30
2022-09-01T19:14:12.211Z,6.10
2022-09-01T19:17:18.434Z,6.60
2022-09-01T19:20:00.841Z,3.50
2022-09-01T19:22:56.871Z,7.40
2022-09-01T19:25:34.523Z,3.70
2022-09-01T19:28:21.156Z,4.30
2022-09-01T19:31:29.161Z,4.20
2022-09-01T19:34:31.762Z,5.10
2022-09-01T19:37:02.494Z,4.10
2022-09-01T19:39:33.126Z,2.80
2022-09-01T19:42:08.777Z,5.50
2022-09-01T19:44:53.538Z,2.50
2022-09-01T19:47:36.663Z,3.80
2022-09-01T19:50:31.564Z,3.90
2022-09-01T19:53:23.802Z,3.80
2022-09-01T19:56:16.995Z,5.90
2022-09-01T19:59:00.494Z,5.10
2022-09-01T20:02:00.359Z,3.20
2022-09-01T20:04:37.086Z,4.10
2022-09-01T20:07:15.280Z,3.80
2022-09-01T20:10:07.635Z,4.40
2022-09-01T20:15:18.831Z,4.50
2022-09-01T20:17:55.913Z,5.10
2022-09-01T20:20:28.085Z,4.20
2022-09-01T20:23:14.790Z,5.00
2022-09-01T20:25:55.561Z,4.30
2022-09-01T20:28:54.145Z,6.00
2022-09-01T20:31:51.021Z,6.40
2022-09-01T20:34:33.092Z,4.00
2022-09-01T20:37:01.163Z,3.20
2022-09-01T20:40:04.734Z,3.80
2022-09-01T20:43:08.679Z,3.00
2022-09-01T20:45:37.286Z,4.40
2022-09-01T20:48:14.854Z,3.90
2022-09-01T20:50:43.465Z,2.90
2022-09-01T20:53:36.397Z,2.90
2022-09-01T20:56:13.683Z,5.80
2022-09-01T20:58:44.864Z,7.70
2022-09-01T21:01:16.994Z,3.10
2022-09-01T21:03:59.100Z,5.60
2022-09-01T21:06:42.221Z,2.90
2022-09-01T21:09:19.610Z,4.00
2022-09-01T21:11:51.573Z,2.70
2022-09-01T21:14:31.439Z,2.80
2022-09-01T21:17:11.780Z,4.10
2022-09-01T21:19:55.416Z,3.60
2022-09-01T21:22:23.693Z,3.20
2022-09-01T21:24:51.870Z,2.40
2022-09-01T21:27:37.243Z,8.20
2022-09-01T21:30:09.679Z,3.10
2022-09-01T21:32:39.330Z,3.50
2022-09-01T21:35:11.048Z,5.10
2022-09-01T21:37:40.078Z,3.50
2022-09-01T21:40:09.605Z,5.90
2022-09-01T21:42:47.624Z,4.10
2022-09-01T21:45:18.219Z,4.80
2022-09-01T21:47:48.234Z,5.00
2022-09-01T21:50:19.480Z,8.50
2022-09-01T21:52:48.036Z,4.20
2022-09-01T21:55:22.045Z,5.30
2022-09-01T21:57:52.196Z,7.00
2022-09-01T22:00:27.331Z,5.20
2022-09-01T22:02:58.174Z,3.90
2022-09-01T22:05:27.112Z,4.90
2022-09-01T22:07:56.871Z,7.60
2022-09-01T22:10:28.431Z,5.90
2022-09-01T22:12:57.600Z,6.90
2022-09-01T22:15:26.723Z,4.60
2022-09-01T22:17:57.860Z,6.10
2022-09-01T22:20:28.902Z,7.50
2022-09-01T22:23:02.141Z,6.60
2022-09-01T22:25:32.315Z,4.60
2022-09-01T22:28:05.787Z,5.20
2022-09-01T22:30:34.829Z,4.20
2022-09-01T22:33:05.900Z,3.40
2022-09-01T22:35:34.022Z,2.80
2022-09-01T22:38:02.094Z,3.90
2022-09-01T22:40:30.309Z,2.90
2022-09-01T22:42:58.651Z,4.20
2022-09-01T22:45:26.819Z,3.50
2022-09-01T22:47:54.995Z,4.60
2022-09-01T22:50:23.272Z,8.00
2022-09-01T22:52:51.444Z,5.40
2022-09-01T22:55:19.847Z,6.50
2022-09-01T22:57:47.948Z,6.20
2022-09-01T23:00:16.171Z,4.30
2022-09-01T23:02:45.308Z,5.00
2022-09-01T23:05:13.644Z,6.70
2022-09-01T23:07:41.818Z,4.50
2022-09-01T23:10:10.096Z,6.50
2022-09-01T23:12:38.575Z,4.00
2022-09-01T23:15:08.063Z,9.10
2022-09-01T23:17:38.015Z,6.80
2022-09-01T23:20:11.597Z,9.80
2022-09-01T23:22:41.206Z,5.30
2022-09-01T23:25:11.817Z,5.70
2022-09-01T23:27:40.521Z,6.30
2022-09-01T23:30:11.604Z,5.10
2022-09-01T23:32:40.043Z,6.00
2022-09-01T23:35:09.620Z,7.50
2022-09-01T23:37:37.975Z,5.20
2022-09-01T23:40:07.981Z,6.40
2022-09-01T23:42:36.672Z,6.30
2022-09-01T23:45:06.158Z,9.20
2022-09-01T23:47:35.847Z,6.20
2022-09-01T23:50:04.699Z,6.80
2022-09-01T23:52:33.217Z,5.40
2022-09-01T23:55:01.704Z,6.90
2022-09-01T23:57:29.871Z,5.50
2022-09-01T23:59:58.150Z,5.20
